METAR Data

Data at: 1217 UTC 26 Mar 2019

METAR for:KSAN (San Diego Intl Arpt, CA, US)
Text:KSAN 261151Z 36003KT 10SM FEW010 BKN250 12/10 A3002 RMK AO2 SLP166 T01220100 10150 20122 56014
Temperature: 12.2°C ( 54°F)
Dewpoint: 10.0°C ( 50°F) [RH = 86%]
Pressure (altimeter):30.02 inches Hg (1016.7 mb) [Sea level pressure: 1016.6 mb]
Winds:from the N (360 degrees) at 3 MPH (3 knots; 1.5 m/s)
Visibility:10 or more sm (16+ km)
Ceiling:25000 feet AGL
Clouds: few clouds at 1000 feet AGL, broken clouds at 25000 feet AGL